Time;durP1;ratioP1;P1;durP2;ratioP2;P2;SDS_P1;SDS_P2;PMS_P1;PMS_P2;Temp;Humidity;BMP_temperature;BMP_pressure;BME280_temperature;BME280_humidity;BME280_pressure;Samples;Min_cycle;Max_cycle;Signal;HPM_P1;HPM_P2
2022/04/08 00:00:35;;;;;;;0.70;0.70;;;13.00;99.90;;;;;;5222427;28;20032;-73
2022/04/08 00:04:02;;;;;;;0.65;0.65;;;12.90;99.90;;;;;;5212487;28;20036;-74
2022/04/08 00:07:29;;;;;;;0.70;0.70;;;12.80;99.90;;;;;;5207884;28;20040;-73
2022/04/08 00:10:53;;;;;;;0.70;0.70;;;12.50;99.90;;;;;;5239588;28;20033;-73
2022/04/08 00:14:20;;;;;;;0.73;0.73;;;12.20;99.90;;;;;;5217380;28;20371;-74
2022/04/08 00:17:47;;;;;;;;;;;11.80;99.90;;;;;;5219787;28;20036;-74
2022/04/08 00:21:14;;;;;;;0.63;0.63;;;11.50;99.90;;;;;;5203934;28;19905;-75
2022/04/08 00:24:38;;;;;;;0.80;0.80;;;11.50;99.90;;;;;;5202262;28;20041;-74
2022/04/08 00:28:03;;;;;;;0.70;0.70;;;11.40;99.90;;;;;;5186096;28;20521;-75
2022/04/08 00:31:30;;;;;;;0.60;0.60;;;11.60;99.90;;;;;;5199489;28;20029;-74
2022/04/08 00:34:54;;;;;;;0.57;0.57;;;11.50;99.90;;;;;;5217654;28;20029;-73
2022/04/08 00:38:18;;;;;;;0.70;0.70;;;11.60;99.90;;;;;;5218043;28;20411;-74
2022/04/08 00:41:48;;;;;;;0.70;0.70;;;11.60;99.90;;;;;;5200087;28;20585;-74
2022/04/08 00:45:16;;;;;;;0.90;0.90;;;11.60;99.90;;;;;;5216066;28;20479;-74
2022/04/08 00:48:46;;;;;;;0.80;0.80;;;11.50;99.90;;;;;;5200047;28;20025;-74
2022/04/08 00:52:11;;;;;;;0.63;0.63;;;11.40;99.90;;;;;;5200058;28;20033;-73
2022/04/08 00:55:39;;;;;;;0.70;0.70;;;11.40;99.90;;;;;;5209774;28;20045;-74
2022/04/08 00:59:06;;;;;;;0.82;0.82;;;11.40;99.90;;;;;;5221410;28;20016;-74
2022/04/08 01:02:30;;;;;;;0.60;0.60;;;11.40;99.90;;;;;;5190412;28;20029;-73
2022/04/08 01:05:56;;;;;;;0.60;0.60;;;11.40;99.90;;;;;;5194679;28;20051;-74
2022/04/08 01:09:25;;;;;;;0.77;0.77;;;11.30;99.90;;;;;;5187787;28;20044;-74
2022/04/08 01:12:50;;;;;;;0.75;0.75;;;11.10;99.90;;;;;;5197491;28;20033;-74
2022/04/08 01:16:22;;;;;;;0.60;0.60;;;11.10;99.90;;;;;;5187004;28;20454;-73
2022/04/08 01:19:49;;;;;;;0.80;0.80;;;11.10;99.90;;;;;;5204135;28;20035;-74
2022/04/08 01:23:18;;;;;;;0.80;0.80;;;11.10;99.90;;;;;;5224825;28;20032;-73
2022/04/08 01:26:42;;;;;;;0.77;0.77;;;11.00;99.90;;;;;;5225070;28;20408;-73
2022/04/08 01:30:12;;;;;;;0.77;0.77;;;10.80;99.90;;;;;;5204643;28;20032;-73
2022/04/08 01:33:38;;;;;;;0.68;0.68;;;10.70;99.90;;;;;;5209922;28;20031;-74
2022/04/08 01:37:03;;;;;;;0.70;0.70;;;10.70;99.90;;;;;;5205638;28;20339;-72
2022/04/08 01:40:27;;;;;;;0.65;0.65;;;10.40;99.90;;;;;;5202276;28;20023;-74
2022/04/08 01:43:52;;;;;;;0.50;0.50;;;10.20;99.90;;;;;;5205307;28;20032;-74
2022/04/08 01:47:21;;;;;;;0.73;0.73;;;10.10;99.90;;;;;;5196708;28;20029;-74
2022/04/08 01:50:45;;;;;;;0.75;0.75;;;10.00;99.90;;;;;;5205814;28;20029;-74
2022/04/08 01:54:11;;;;;;;0.70;0.70;;;9.90;99.90;;;;;;5197428;28;20025;-72
2022/04/08 01:57:41;;;;;;;0.70;0.70;;;9.80;99.90;;;;;;5216545;28;20044;-72
2022/04/08 02:01:09;;;;;;;0.80;0.80;;;9.70;99.90;;;;;;5184114;28;20665;-73
2022/04/08 02:04:38;;;;;;;0.80;0.80;;;9.70;99.90;;;;;;5184383;28;20048;-73
2022/04/08 02:08:05;;;;;;;0.60;0.60;;;9.60;99.90;;;;;;5195863;28;20354;-75
2022/04/08 02:11:29;;;;;;;0.73;0.73;;;9.40;99.90;;;;;;5202514;28;20028;-73
2022/04/08 02:14:56;;;;;;;0.75;0.75;;;9.30;99.90;;;;;;5209685;28;20039;-74
2022/04/08 02:18:26;;;;;;;1.25;1.17;;;9.20;99.90;;;;;;5193063;28;20051;-73
2022/04/08 02:21:51;;;;;;;0.70;0.70;;;9.10;99.90;;;;;;5223055;28;20031;-75
2022/04/08 02:25:20;;;;;;;0.60;0.60;;;9.10;99.90;;;;;;5220945;28;20028;-73
2022/04/08 02:28:47;;;;;;;0.60;0.60;;;9.10;99.90;;;;;;5196426;28;20286;-73
2022/04/08 02:32:11;;;;;;;0.80;0.80;;;9.10;99.90;;;;;;5203246;28;20021;-75
2022/04/08 02:35:40;;;;;;;0.75;0.75;;;9.10;99.90;;;;;;5202436;28;20043;-74
2022/04/08 02:39:06;;;;;;;0.80;0.80;;;9.20;99.90;;;;;;5215983;28;20031;-75
2022/04/08 02:42:33;;;;;;;0.80;0.80;;;9.30;99.90;;;;;;5202132;28;20554;-72
2022/04/08 02:46:00;;;;;;;;;;;9.20;99.90;;;;;;5221633;28;20036;-73
2022/04/08 02:49:27;;;;;;;0.88;0.88;;;9.00;99.90;;;;;;5201962;28;20090;-74
2022/04/08 02:52:56;;;;;;;0.80;0.80;;;8.90;99.90;;;;;;5220173;28;20043;-73
2022/04/08 02:56:23;;;;;;;0.60;0.60;;;9.00;99.90;;;;;;5203523;28;20054;-73
2022/04/08 02:59:52;;;;;;;0.82;0.82;;;9.00;99.90;;;;;;5219993;28;20035;-74
2022/04/08 03:03:24;;;;;;;0.88;0.88;;;9.00;99.90;;;;;;5223844;28;20067;-75
2022/04/08 03:06:51;;;;;;;0.80;0.80;;;8.90;99.90;;;;;;5204254;28;20057;-73
2022/04/08 03:10:16;;;;;;;0.60;0.60;;;8.70;99.90;;;;;;5225704;28;20040;-73
2022/04/08 03:13:43;;;;;;;0.93;0.93;;;8.60;99.90;;;;;;5221994;28;20032;-74
2022/04/08 03:17:09;;;;;;;0.75;0.75;;;8.50;99.90;;;;;;5215438;28;20044;-74
2022/04/08 03:20:41;;;;;;;0.47;0.47;;;8.60;99.90;;;;;;5230321;28;20043;-74
2022/04/08 03:24:05;;;;;;;0.70;0.70;;;8.50;99.90;;;;;;5216762;28;20060;-74
2022/04/08 03:27:30;;;;;;;0.70;0.70;;;8.30;99.90;;;;;;5217012;28;20021;-73
2022/04/08 03:30:55;;;;;;;0.70;0.70;;;8.30;99.90;;;;;;5207496;28;20029;-73
2022/04/08 03:34:23;;;;;;;0.75;0.75;;;8.30;99.90;;;;;;5185228;28;20100;-73
2022/04/08 03:37:53;;;;;;;0.80;0.80;;;8.30;99.90;;;;;;5221338;28;20019;-73
2022/04/08 03:41:17;;;;;;;0.70;0.70;;;8.30;99.90;;;;;;5188424;28;20021;-74
2022/04/08 03:44:51;;;;;;;0.85;0.85;;;8.50;99.90;;;;;;5193905;28;20017;-74
2022/04/08 03:48:17;;;;;;;0.90;0.90;;;8.60;99.90;;;;;;5198486;28;20017;-73
2022/04/08 03:51:47;;;;;;;0.70;0.70;;;8.60;99.90;;;;;;5200732;28;20025;-73
2022/04/08 03:55:13;;;;;;;0.73;0.73;;;8.40;99.90;;;;;;5207948;28;20020;-74
2022/04/08 03:58:40;;;;;;;0.90;0.90;;;8.40;99.90;;;;;;5221369;28;20033;-73
2022/04/08 04:02:07;;;;;;;;;;;8.40;99.90;;;;;;5203134;28;20028;-73
2022/04/08 04:05:34;;;;;;;0.82;0.82;;;8.40;99.90;;;;;;5173696;28;19921;-75
2022/04/08 04:09:01;;;;;;;0.70;0.70;;;8.40;99.90;;;;;;5202100;28;20041;-74
2022/04/08 04:12:33;;;;;;;0.70;0.70;;;8.60;99.90;;;;;;5185227;28;20047;-73
2022/04/08 04:16:01;;;;;;;0.75;0.75;;;8.60;99.90;;;;;;5181366;28;20036;-75
2022/04/08 04:19:28;;;;;;;0.70;0.70;;;8.60;99.90;;;;;;5181404;28;20026;-73
2022/04/08 04:22:53;;;;;;;0.60;0.60;;;8.60;99.90;;;;;;5198546;28;20091;-73
2022/04/08 04:26:20;;;;;;;0.77;0.77;;;8.60;99.90;;;;;;5191644;28;20029;-75
2022/04/08 04:29:47;;;;;;;0.68;0.68;;;8.60;99.90;;;;;;5201173;28;20030;-74
2022/04/08 04:33:19;;;;;;;0.73;0.73;;;8.60;99.90;;;;;;5202630;28;20025;-74
2022/04/08 04:36:44;;;;;;;0.75;0.75;;;8.70;99.90;;;;;;5215708;28;20048;-74
2022/04/08 04:40:08;;;;;;;0.65;0.65;;;8.80;99.90;;;;;;5204986;28;20407;-74
2022/04/08 04:43:32;;;;;;;0.70;0.70;;;8.90;99.90;;;;;;5223488;28;20035;-72
2022/04/08 04:46:57;;;;;;;0.65;0.65;;;8.90;99.90;;;;;;5201317;28;20043;-75
2022/04/08 04:50:21;;;;;;;0.90;0.90;;;9.10;99.90;;;;;;5203544;28;20037;-73
2022/04/08 04:53:48;;;;;;;0.80;0.80;;;9.10;99.90;;;;;;5221796;28;20329;-74
2022/04/08 04:57:15;;;;;;;0.80;0.80;;;9.20;99.90;;;;;;5196153;28;20040;-74
2022/04/08 05:00:43;;;;;;;0.93;0.93;;;9.20;99.90;;;;;;5204426;28;20044;-75
2022/04/08 05:04:07;;;;;;;0.70;0.70;;;9.20;99.90;;;;;;5223011;28;20031;-74
2022/04/08 05:07:31;;;;;;;0.90;0.90;;;9.20;99.90;;;;;;5187172;28;20055;-73
2022/04/08 05:10:58;;;;;;;0.60;0.60;;;9.20;99.90;;;;;;5202122;28;20033;-74
2022/04/08 05:14:24;;;;;;;0.70;0.70;;;9.20;99.90;;;;;;5197227;28;20036;-74
2022/04/08 05:17:48;;;;;;;;;;;9.30;99.90;;;;;;5198811;28;20242;-74
2022/04/08 05:21:12;;;;;;;0.52;0.52;;;9.30;99.90;;;;;;5218985;28;19909;-73
2022/04/08 05:24:44;;;;;;;0.70;0.70;;;9.20;99.90;;;;;;5203577;28;20025;-73
2022/04/08 05:28:11;;;;;;;0.70;0.70;;;9.20;99.90;;;;;;5204218;28;20040;-74
2022/04/08 05:31:35;;;;;;;0.80;0.80;;;9.20;99.90;;;;;;5221949;28;20025;-73
2022/04/08 05:35:01;;;;;;;0.70;0.70;;;9.20;99.90;;;;;;5205426;28;20395;-74
2022/04/08 05:38:33;;;;;;;0.77;0.77;;;9.40;99.90;;;;;;5205591;28;20029;-75
2022/04/08 05:41:57;;;;;;;0.80;0.80;;;9.80;99.90;;;;;;5224686;28;20037;-75
2022/04/08 05:45:26;;;;;;;0.88;0.88;;;9.80;99.90;;;;;;5224548;28;20032;-75
2022/04/08 05:48:58;;;;;;;0.70;0.70;;;10.00;99.90;;;;;;5234975;28;20478;-72
2022/04/08 05:52:29;;;;;;;4.95;3.30;;;10.10;99.90;;;;;;5228722;28;20064;-73
2022/04/08 05:55:56;;;;;;;0.70;0.70;;;10.20;99.90;;;;;;5209781;28;20039;-75
2022/04/08 05:59:20;;;;;;;0.80;0.80;;;10.20;99.90;;;;;;5183721;28;21280;-73
2022/04/08 06:02:45;;;;;;;0.85;0.85;;;10.20;99.90;;;;;;5213897;28;20040;-73
2022/04/08 06:06:54;;;;;;;0.80;0.80;;;10.20;99.90;;;;;;5195134;28;20052;-74
2022/04/08 06:10:22;;;;;;;0.80;0.80;;;10.30;99.90;;;;;;5174808;28;20037;-73
2022/04/08 06:13:51;;;;;;;0.65;0.65;;;10.30;99.90;;;;;;5185168;28;20033;-74
2022/04/08 06:17:23;;;;;;;0.68;0.68;;;10.30;99.90;;;;;;5188900;28;20037;-72
2022/04/08 06:20:50;;;;;;;0.90;0.90;;;10.10;99.90;;;;;;5212905;28;20362;-73
2022/04/08 06:24:16;;;;;;;;;;;10.10;99.90;;;;;;5197823;28;20033;-73
2022/04/08 06:27:40;;;;;;;0.80;0.80;;;10.10;99.90;;;;;;5195281;28;20403;-72
2022/04/08 06:31:07;;;;;;;0.80;0.80;;;10.30;99.90;;;;;;5211309;28;20060;-73
2022/04/08 06:34:31;;;;;;;1.92;1.83;;;10.50;99.90;;;;;;5180582;28;20033;-75
2022/04/08 06:38:04;;;;;;;0.80;0.80;;;10.50;99.90;;;;;;5214265;28;20033;-71
2022/04/08 06:41:29;;;;;;;2.38;2.17;;;10.60;99.90;;;;;;5196279;28;20024;-74
2022/04/08 06:44:58;;;;;;;0.90;0.90;;;10.90;99.90;;;;;;5205122;28;20032;-73
2022/04/08 06:48:28;;;;;;;0.70;0.70;;;11.00;99.90;;;;;;5201283;28;20044;-73
2022/04/08 06:51:58;;;;;;;1.17;1.17;;;10.90;99.90;;;;;;5215684;28;20017;-72
2022/04/08 06:55:25;;;;;;;0.82;0.82;;;11.00;99.90;;;;;;5217130;28;20031;-73
2022/04/08 06:58:58;;;;;;;0.70;0.70;;;10.70;99.90;;;;;;5197671;28;20025;-74
2022/04/08 07:02:22;;;;;;;0.90;0.90;;;10.80;99.90;;;;;;5178603;28;20032;-74
2022/04/08 07:05:46;;;;;;;0.77;0.77;;;10.70;99.90;;;;;;5203725;28;20675;-73
2022/04/08 07:09:13;;;;;;;0.60;0.60;;;10.70;99.90;;;;;;5194965;28;20048;-72
2022/04/08 07:12:37;;;;;;;0.77;0.77;;;10.90;99.90;;;;;;5219521;28;20195;-72
2022/04/08 07:16:04;;;;;;;0.82;0.82;;;11.10;99.90;;;;;;5219851;28;20036;-74
2022/04/08 07:19:33;;;;;;;2.55;2.35;;;11.20;99.90;;;;;;5233216;28;20023;-73
2022/04/08 07:23:02;;;;;;;0.90;0.90;;;11.20;99.90;;;;;;5214344;28;20027;-73
2022/04/08 07:26:28;;;;;;;0.70;0.70;;;11.40;99.90;;;;;;5188583;28;20032;-73
2022/04/08 07:29:57;;;;;;;0.80;0.80;;;11.90;99.90;;;;;;5192262;28;20032;-73
2022/04/08 07:33:21;;;;;;;0.70;0.70;;;11.60;99.90;;;;;;5195177;28;20024;-74
2022/04/08 07:36:52;;;;;;;0.80;0.80;;;11.80;99.90;;;;;;5196940;28;20029;-73
2022/04/08 07:40:16;;;;;;;0.70;0.70;;;11.80;99.90;;;;;;5165269;28;20032;-74
2022/04/08 07:43:44;;;;;;;0.65;0.65;;;11.80;99.90;;;;;;5195819;28;20043;-73
2022/04/08 07:47:11;;;;;;;0.80;0.80;;;11.80;99.90;;;;;;5213288;28;20032;-72
2022/04/08 07:50:41;;;;;;;0.80;0.80;;;11.90;99.90;;;;;;5162509;28;20479;-73
2022/04/08 07:54:15;;;;;;;0.70;0.70;;;12.40;99.90;;;;;;5212928;28;20017;-74
2022/04/08 07:57:45;;;;;;;0.60;0.60;;;12.80;99.90;;;;;;5212479;28;20020;-74
2022/04/08 08:01:13;;;;;;;0.70;0.70;;;12.60;99.90;;;;;;5194597;28;20040;-73
2022/04/08 08:04:40;;;;;;;0.93;0.80;;;12.70;99.90;;;;;;5212261;28;20500;-73
2022/04/08 08:08:07;;;;;;;0.80;0.80;;;12.10;99.90;;;;;;5168544;28;20045;-74
2022/04/08 08:11:36;;;;;;;0.68;0.68;;;12.00;99.90;;;;;;5179250;28;20040;-72
2022/04/08 08:15:03;;;;;;;0.80;0.80;;;12.10;99.90;;;;;;5163167;28;20552;-73
2022/04/08 08:18:28;;;;;;;0.70;0.70;;;12.20;99.90;;;;;;5200273;28;20936;-74
2022/04/08 08:22:03;;;;;;;0.70;0.70;;;12.00;99.90;;;;;;5194332;28;20065;-73
2022/04/08 08:25:30;;;;;;;0.70;0.70;;;11.80;99.90;;;;;;5171561;28;20482;-73
2022/04/08 08:28:54;;;;;;;0.80;0.80;;;11.70;99.90;;;;;;5185539;28;20382;-73
2022/04/08 08:32:20;;;;;;;0.80;0.80;;;12.10;99.90;;;;;;5212323;28;20029;-73
2022/04/08 08:35:45;;;;;;;1.10;1.10;;;12.30;99.90;;;;;;5163216;28;20025;-73
2022/04/08 08:39:14;;;;;;;0.77;0.77;;;12.30;99.90;;;;;;5176007;28;20014;-74
2022/04/08 08:42:44;;;;;;;0.60;0.60;;;12.40;99.90;;;;;;5202564;28;20029;-73
2022/04/08 08:46:12;;;;;;;1.30;1.30;;;11.80;99.90;;;;;;5152104;28;20030;-74
2022/04/08 08:49:38;;;;;;;0.70;0.70;;;12.40;99.90;;;;;;5178248;28;21068;-73
2022/04/08 08:53:07;;;;;;;1.35;1.35;;;12.60;99.90;;;;;;5194557;28;20045;-73
2022/04/08 08:56:32;;;;;;;0.77;0.77;;;12.50;99.90;;;;;;5212417;28;20028;-73
2022/04/08 09:00:06;;;;;;;1.60;1.37;;;12.30;99.90;;;;;;5212264;28;20017;-73
2022/04/08 09:03:36;;;;;;;0.70;0.70;;;12.50;99.90;;;;;;5224139;28;20233;-73
2022/04/08 09:07:03;;;;;;;5.55;1.60;;;12.60;99.90;;;;;;5196470;28;21010;-74
2022/04/08 09:10:33;;;;;;;0.80;0.80;;;12.80;99.90;;;;;;5213840;28;20020;-73
2022/04/08 09:14:04;;;;;;;1.17;1.15;;;12.50;99.90;;;;;;5210769;28;20036;-74
2022/04/08 09:17:30;;;;;;;0.70;0.70;;;12.70;99.90;;;;;;5195802;28;20880;-74
2022/04/08 09:20:54;;;;;;;0.70;0.70;;;13.20;99.90;;;;;;5192680;28;20634;-76
2022/04/08 09:24:23;;;;;;;0.70;0.70;;;13.50;99.90;;;;;;5216457;28;20029;-75
2022/04/08 09:27:48;;;;;;;1.55;1.20;;;13.90;99.90;;;;;;5181658;28;20037;-73
2022/04/08 09:31:16;;;;;;;0.93;0.93;;;13.60;99.90;;;;;;5201078;28;20029;-73
2022/04/08 09:34:50;;;;;;;1.00;1.00;;;13.20;99.90;;;;;;5218972;28;20029;-74
2022/04/08 09:38:21;;;;;;;0.80;0.80;;;13.60;99.90;;;;;;5214201;28;20013;-73
2022/04/08 09:41:56;;;;;;;0.70;0.70;;;13.50;99.90;;;;;;5208888;28;20029;-74
2022/04/08 09:45:32;;;;;;;0.60;0.60;;;14.00;99.90;;;;;;5214551;28;20059;-73
2022/04/08 09:49:08;;;;;;;0.85;0.85;;;13.50;99.90;;;;;;5190041;28;20033;-73
2022/04/08 09:52:36;;;;;;;3.92;1.50;;;13.70;99.90;;;;;;5198107;28;20029;-75
2022/04/08 09:56:05;;;;;;;0.63;0.63;;;14.00;99.90;;;;;;5188387;28;20503;-73
2022/04/08 09:59:34;;;;;;;0.60;0.60;;;14.20;99.90;;;;;;5198426;28;20036;-72
2022/04/08 10:02:59;;;;;;;0.70;0.70;;;14.20;99.90;;;;;;5197797;28;20910;-72
2022/04/08 10:06:23;;;;;;;0.60;0.60;;;14.00;99.90;;;;;;5191218;28;20052;-73
2022/04/08 10:09:54;;;;;;;1.13;1.13;;;14.60;99.90;;;;;;5219069;28;20031;-74
2022/04/08 10:13:58;;;;;;;0.70;0.70;;;14.90;99.90;;;;;;5198262;28;20029;-73
2022/04/08 10:17:29;;;;;;;0.70;0.70;;;15.30;99.90;;;;;;5197263;28;20101;-73
2022/04/08 10:21:19;;;;;;;1.08;1.08;;;16.10;99.90;;;;;;5180741;28;20037;-74
2022/04/08 10:24:59;;;;;;;0.60;0.60;;;16.40;99.90;;;;;;5197013;28;20021;-75
2022/04/08 10:28:33;;;;;;;1.67;0.85;;;16.10;99.90;;;;;;5181910;28;20037;-74
2022/04/08 10:32:15;;;;;;;0.73;0.73;;;15.70;99.90;;;;;;5180329;28;20029;-73
2022/04/08 10:35:39;;;;;;;0.70;0.70;;;16.10;99.90;;;;;;5229945;28;20021;-73
2022/04/08 10:39:14;;;;;;;0.63;0.63;;;15.40;99.90;;;;;;5200547;28;20032;-74
2022/04/08 10:43:00;;;;;;;0.60;0.60;;;15.50;99.90;;;;;;5217894;28;20142;-73
2022/04/08 10:46:35;;;;;;;0.60;0.60;;;15.40;99.90;;;;;;5213948;28;20028;-74
2022/04/08 10:50:02;;;;;;;0.80;0.80;;;15.40;99.90;;;;;;5196726;28;20043;-74
2022/04/08 10:52:41;;;;;;;0.68;0.68;;;15.30;99.90;;;;;;5215790;28;20017;-73
2022/04/08 10:55:13;;;;;;;0.60;0.60;;;15.60;99.90;;;;;;5197940;28;20055;-74
2022/04/08 10:57:57;;;;;;;0.70;0.70;;;15.40;99.90;;;;;;5197881;28;20020;-75
2022/04/08 11:00:39;;;;;;;0.80;0.80;;;14.80;99.90;;;;;;5175884;28;20021;-73
2022/04/08 11:03:11;;;;;;;0.88;0.88;;;15.30;99.90;;;;;;5198212;28;20021;-74
2022/04/08 11:05:42;;;;;;;0.60;0.60;;;15.50;99.90;;;;;;5208490;28;20150;-74
2022/04/08 11:08:14;;;;;;;0.63;0.63;;;16.00;99.90;;;;;;5207086;28;20570;-74
2022/04/08 11:11:03;;;;;;;0.60;0.60;;;15.60;99.90;;;;;;5215291;28;20010;-73
2022/04/08 11:13:41;;;;;;;0.60;0.60;;;15.80;99.90;;;;;;5216340;28;20013;-75
2022/04/08 11:16:16;;;;;;;0.57;0.57;;;16.20;99.90;;;;;;5215533;28;20052;-74
2022/04/08 11:19:42;;;;;;;0.50;0.50;;;16.40;99.90;;;;;;5181330;28;20047;-73
2022/04/08 11:22:14;;;;;;;0.80;0.80;;;17.10;99.90;;;;;;5211114;28;20029;-73
2022/04/08 11:24:45;;;;;;;0.60;0.60;;;17.50;99.90;;;;;;5205062;28;20032;-74
2022/04/08 11:27:17;;;;;;;0.60;0.60;;;16.90;99.90;;;;;;5204107;28;20028;-75
2022/04/08 11:29:48;;;;;;;0.60;0.60;;;17.60;99.90;;;;;;5190251;28;20021;-72
2022/04/08 11:32:33;;;;;;;0.50;0.50;;;18.20;99.90;;;;;;5214535;28;20021;-76
2022/04/08 11:35:16;;;;;;;0.60;0.60;;;18.40;99.90;;;;;;5196836;28;20423;-74
2022/04/08 11:37:51;;;;;;;0.30;0.30;;;18.50;99.90;;;;;;5179216;28;20051;-74
2022/04/08 11:40:22;;;;;;;;;;;18.80;99.90;;;;;;5196120;28;20013;-74
2022/04/08 11:43:00;;;;;;;0.55;0.55;;;18.90;99.90;;;;;;5178443;28;19907;-74
2022/04/08 11:45:37;;;;;;;0.85;0.85;;;18.70;99.90;;;;;;5213373;28;20033;-75
2022/04/08 11:48:23;;;;;;;0.40;0.40;;;18.20;99.90;;;;;;5198314;28;20131;-74
2022/04/08 11:51:07;;;;;;;0.50;0.50;;;18.30;99.90;;;;;;5182922;28;20027;-74
2022/04/08 11:53:51;;;;;;;0.50;0.50;;;18.30;99.90;;;;;;5187673;28;20282;-75
2022/04/08 11:56:29;;;;;;;0.50;0.50;;;18.70;99.90;;;;;;5214122;28;20523;-74
2022/04/08 11:59:05;;;;;;;0.63;0.63;;;19.30;99.90;;;;;;5202807;28;20015;-74
2022/04/08 12:01:42;;;;;;;0.38;0.38;;;19.50;99.90;;;;;;5190349;28;20041;-73
2022/04/08 12:04:19;;;;;;;0.50;0.50;;;18.70;99.90;;;;;;5185519;28;20409;-73
2022/04/08 12:06:51;;;;;;;0.30;0.30;;;19.30;99.90;;;;;;5197341;28;20025;-74
2022/04/08 12:09:26;;;;;;;0.60;0.60;;;19.40;99.90;;;;;;5182477;28;20075;-73
2022/04/08 12:12:00;;;;;;;0.55;0.55;;;19.10;99.90;;;;;;5164531;28;20021;-74
2022/04/08 12:14:37;;;;;;;0.50;0.50;;;18.50;99.90;;;;;;5195281;28;20372;-73
2022/04/08 12:17:11;;;;;;;0.60;0.60;;;18.00;99.90;;;;;;5196397;28;20017;-73
2022/04/08 12:19:43;;;;;;;0.50;0.50;;;17.40;99.90;;;;;;5196873;28;20476;-73
2022/04/08 12:22:18;;;;;;;0.40;0.40;;;17.10;99.90;;;;;;5181237;28;20029;-73
2022/04/08 12:24:52;;;;;;;0.93;0.73;;;17.00;99.90;;;;;;5198767;28;20468;-72
2022/04/08 12:27:24;;;;;;;;;;;17.10;99.90;;;;;;5197207;28;20033;-75
2022/04/08 12:30:10;;;;;;;0.70;0.70;;;17.30;99.90;;;;;;5197193;28;19916;-74
2022/04/08 12:33:34;;;;;;;0.52;0.52;;;17.40;99.90;;;;;;5198325;28;20028;-72
2022/04/08 12:36:15;;;;;;;0.77;0.77;;;17.00;99.90;;;;;;5181740;28;20355;-73
2022/04/08 12:38:49;;;;;;;0.80;0.80;;;17.10;99.90;;;;;;5215589;28;20056;-74
2022/04/08 12:41:21;;;;;;;1.13;1.13;;;16.70;99.90;;;;;;5213990;28;20036;-72
2022/04/08 12:43:54;;;;;;;0.70;0.70;;;16.60;99.90;;;;;;5213524;28;20025;-73
2022/04/08 12:46:27;;;;;;;0.50;0.50;;;16.50;99.90;;;;;;5179690;28;20021;-72
2022/04/08 12:49:00;;;;;;;0.55;0.55;;;16.90;99.90;;;;;;5218103;28;20029;-73
2022/04/08 12:51:33;;;;;;;1.17;1.15;;;17.10;99.90;;;;;;5213523;28;20376;-73
2022/04/08 12:54:07;;;;;;;0.80;0.80;;;17.30;99.90;;;;;;5181804;28;20029;-75
2022/04/08 12:56:42;;;;;;;0.70;0.70;;;17.60;99.90;;;;;;5220490;28;20024;-72
2022/04/08 13:00:11;;;;;;;0.85;0.85;;;17.20;99.90;;;;;;5220977;28;20036;-73
2022/04/08 13:02:47;;;;;;;0.50;0.50;;;17.20;99.90;;;;;;5197656;28;20844;-74
2022/04/08 13:05:19;;;;;;;0.95;0.95;;;17.10;99.90;;;;;;5189465;28;20037;-74
2022/04/08 13:08:46;;;;;;;0.65;0.65;;;17.20;99.90;;;;;;5217577;28;20021;-76
2022/04/08 13:12:12;;;;;;;0.70;0.70;;;17.40;99.90;;;;;;5199115;28;20027;-72
2022/04/08 13:15:38;;;;;;;1.33;1.33;;;17.40;99.90;;;;;;5198559;28;20716;-74
2022/04/08 13:19:04;;;;;;;0.80;0.80;;;17.30;99.90;;;;;;5214659;28;20033;-73
2022/04/08 13:22:28;;;;;;;;;;;17.10;99.90;;;;;;5216065;28;21291;-74
2022/04/08 13:25:55;;;;;;;0.60;0.60;;;17.60;99.90;;;;;;5199176;28;19912;-74
2022/04/08 13:29:18;;;;;;;;;;;17.50;99.90;;;;;;5202449;28;20044;-76
2022/04/08 13:32:47;;;;;;;0.80;0.80;;;17.20;99.90;;;;;;5196532;28;19905;-73
2022/04/08 13:36:16;;;;;;;0.60;0.60;;;17.30;99.90;;;;;;5200554;28;20024;-72
2022/04/08 13:39:40;;;;;;;0.60;0.60;;;17.60;99.90;;;;;;5219866;28;20060;-74
2022/04/08 13:43:07;;;;;;;0.60;0.60;;;17.50;99.90;;;;;;5203408;28;20388;-74
2022/04/08 13:46:31;;;;;;;0.52;0.52;;;18.00;99.90;;;;;;5187603;28;20033;-75
2022/04/08 13:50:01;;;;;;;0.75;0.75;;;17.90;99.90;;;;;;5222572;28;20040;-73
2022/04/08 13:53:25;;;;;;;0.90;0.90;;;18.90;99.90;;;;;;5219119;28;20025;-74
2022/04/08 13:56:37;;;;;;;0.47;0.47;;;18.90;99.90;;;;;;5221774;28;20067;-73
2022/04/08 13:59:09;;;;;;;1.10;0.90;;;17.90;99.90;;;;;;5222051;28;20514;-74
2022/04/08 14:01:40;;;;;;;0.55;0.55;;;17.40;99.90;;;;;;5204977;28;20051;-73
2022/04/08 14:04:15;;;;;;;0.80;0.80;;;17.50;99.90;;;;;;5195674;28;20051;-72
2022/04/08 14:06:49;;;;;;;0.52;0.52;;;17.70;99.90;;;;;;5221455;28;20583;-73
2022/04/08 14:09:20;;;;;;;0.40;0.40;;;17.70;99.90;;;;;;5222104;28;20033;-73
2022/04/08 14:11:57;;;;;;;0.52;0.52;;;18.10;99.90;;;;;;5225259;28;20025;-73
2022/04/08 14:14:28;;;;;;;0.50;0.50;;;18.10;99.90;;;;;;5205534;28;20037;-75
2022/04/08 14:17:03;;;;;;;1.00;1.00;;;17.80;99.90;;;;;;5204903;28;20032;-74
2022/04/08 14:19:35;;;;;;;;;;;17.30;99.90;;;;;;5205686;28;20039;-74
2022/04/08 14:22:11;;;;;;;0.80;0.80;;;17.30;99.90;;;;;;5188591;28;19917;-73
2022/04/08 14:24:50;;;;;;;0.65;0.65;;;18.20;99.90;;;;;;5204298;28;20025;-73
2022/04/08 14:27:23;;;;;;;0.70;0.70;;;18.80;99.90;;;;;;5204581;28;20037;-73
2022/04/08 14:30:02;;;;;;;1.20;1.20;;;18.20;99.90;;;;;;5204736;28;20028;-73
2022/04/08 14:32:36;;;;;;;0.52;0.52;;;19.00;99.90;;;;;;5206053;28;20031;-74
2022/04/08 14:35:08;;;;;;;0.40;0.40;;;20.20;99.90;;;;;;5173857;28;20029;-74
2022/04/08 14:37:42;;;;;;;1.02;1.02;;;21.10;99.90;;;;;;5223182;28;20407;-72
2022/04/08 14:40:14;;;;;;;0.47;0.47;;;20.70;99.90;;;;;;5222442;28;20501;-75
2022/04/08 14:42:48;;;;;;;0.68;0.68;;;20.30;99.90;;;;;;5222490;28;20029;-73
2022/04/08 14:45:20;;;;;;;0.70;0.70;;;20.80;99.90;;;;;;5205876;28;20025;-74
2022/04/08 14:47:52;;;;;;;0.60;0.60;;;21.00;99.90;;;;;;5204748;28;20036;-75
2022/04/08 14:50:30;;;;;;;1.05;1.05;;;20.70;99.90;;;;;;5223971;28;20033;-73
2022/04/08 14:53:05;;;;;;;0.60;0.60;;;20.10;99.90;;;;;;5208514;28;20013;-73
2022/04/08 14:55:36;;;;;;;1.13;1.02;;;19.40;99.90;;;;;;5208015;28;20029;-74
2022/04/08 14:58:14;;;;;;;1.33;1.05;;;18.80;99.90;;;;;;5225602;28;20130;-73
2022/04/08 15:00:48;;;;;;;0.60;0.60;;;18.50;99.90;;;;;;5200100;28;20031;-74
2022/04/08 15:03:20;;;;;;;1.67;1.30;;;18.10;99.90;;;;;;5207651;28;20021;-74
2022/04/08 15:05:52;;;;;;;1.83;1.17;;;18.10;99.90;;;;;;5198051;28;20063;-73
2022/04/08 15:08:31;;;;;;;0.45;0.45;;;17.90;99.90;;;;;;5190895;28;20311;-75
2022/04/08 15:11:06;;;;;;;0.60;0.60;;;18.00;99.90;;;;;;5234191;28;20031;-74
2022/04/08 15:13:38;;;;;;;1.08;0.98;;;18.00;99.90;;;;;;5191910;28;20442;-75
2022/04/08 15:16:09;;;;;;;2.42;2.22;;;18.30;99.90;;;;;;5205781;28;20029;-75
2022/04/08 15:18:43;;;;;;;2.30;0.95;;;18.10;99.90;;;;;;5225965;28;20016;-74
2022/04/08 15:21:26;;;;;;;0.85;0.85;;;17.90;99.90;;;;;;5208795;28;20222;-75
2022/04/08 15:24:04;;;;;;;0.70;0.70;;;17.80;99.90;;;;;;5190719;28;20346;-75
2022/04/08 15:26:38;;;;;;;0.60;0.60;;;18.20;99.90;;;;;;5208632;28;20021;-73
2022/04/08 15:29:13;;;;;;;;;;;18.50;99.90;;;;;;5207264;28;20302;-73
2022/04/08 15:31:48;;;;;;;1.58;1.50;;;17.50;99.90;;;;;;5209417;28;19912;-74
2022/04/08 15:34:22;;;;;;;0.50;0.50;;;17.50;99.90;;;;;;5206650;28;20029;-74
2022/04/08 15:36:56;;;;;;;;;;;17.60;99.90;;;;;;5215208;28;20021;-73
2022/04/08 15:39:28;;;;;;;0.80;0.80;;;17.50;99.90;;;;;;5206751;28;19904;-74
2022/04/08 15:41:59;;;;;;;0.82;0.82;;;18.00;99.90;;;;;;5223702;28;20025;-73
2022/04/08 15:44:37;;;;;;;0.65;0.65;;;18.00;99.90;;;;;;5190305;28;20040;-74
2022/04/08 15:47:14;;;;;;;0.90;0.90;;;17.70;99.90;;;;;;5206429;28;20005;-74
2022/04/08 15:49:45;;;;;;;0.60;0.60;;;17.70;99.90;;;;;;5222856;28;20035;-73
2022/04/08 15:52:17;;;;;;;1.27;1.27;;;18.00;99.90;;;;;;5191091;28;20395;-73
2022/04/08 15:54:54;;;;;;;1.67;1.58;;;17.80;99.90;;;;;;5207575;28;20017;-74
2022/04/08 15:57:30;;;;;;;1.15;1.13;;;17.80;99.90;;;;;;5205166;28;20329;-73
2022/04/08 16:00:10;;;;;;;0.57;0.57;;;17.70;99.90;;;;;;5190649;28;20051;-74
2022/04/08 16:02:45;;;;;;;0.70;0.70;;;17.40;99.90;;;;;;5207251;28;20330;-74
2022/04/08 16:05:20;;;;;;;36.17;1.30;;;17.60;99.90;;;;;;5196120;28;20048;-74
2022/04/08 16:07:52;;;;;;;0.50;0.50;;;17.70;99.90;;;;;;5205670;28;20039;-74
2022/04/08 16:10:23;;;;;;;0.90;0.90;;;17.80;99.90;;;;;;5204977;28;20016;-73
2022/04/08 16:12:55;;;;;;;0.50;0.50;;;17.50;99.90;;;;;;5225222;28;20020;-73
2022/04/08 16:15:27;;;;;;;0.60;0.60;;;17.70;99.90;;;;;;5224954;28;20029;-74
2022/04/08 16:18:51;;;;;;;0.85;0.85;;;18.10;99.90;;;;;;5207060;28;20025;-74
2022/04/08 16:22:18;;;;;;;1.20;1.10;;;18.30;99.90;;;;;;5201032;28;20041;-75
2022/04/08 16:25:42;;;;;;;0.60;0.60;;;18.20;99.90;;;;;;5224317;28;20529;-73
2022/04/08 16:29:08;;;;;;;0.60;0.60;;;18.10;99.90;;;;;;5205015;28;20440;-74
2022/04/08 16:32:34;;;;;;;11.70;2.70;;;18.10;99.90;;;;;;5206776;28;20033;-74
2022/04/08 16:35:59;;;;;;;0.60;0.60;;;17.60;99.90;;;;;;5194093;28;20033;-73
2022/04/08 16:39:24;;;;;;;0.68;0.68;;;16.90;99.90;;;;;;5211599;28;20039;-74